createdAt,value
2019-02-28T00:01:52.456Z,18.20
2019-02-28T00:04:20.493Z,20.77
2019-02-28T00:06:48.600Z,18.20
2019-02-28T00:09:16.617Z,20.63
2019-02-28T00:11:44.645Z,18.20
2019-02-28T00:14:12.694Z,18.90
2019-02-28T00:16:40.647Z,20.17
2019-02-28T00:19:10.897Z,19.50
2019-02-28T00:21:40.646Z,19.53
2019-02-28T00:24:09.454Z,19.93
2019-02-28T00:26:37.577Z,21.43
2019-02-28T00:29:05.735Z,21.30
2019-02-28T00:31:33.666Z,21.00
2019-02-28T00:34:04.555Z,20.30
2019-02-28T00:36:31.925Z,22.40
2019-02-28T00:39:00.766Z,22.60
2019-02-28T00:41:28.810Z,21.70
2019-02-28T00:43:57.886Z,21.17
2019-02-28T00:46:25.983Z,20.57
2019-02-28T00:48:54.517Z,20.70
2019-02-28T00:51:23.353Z,22.10
2019-02-28T00:53:51.426Z,22.37
2019-02-28T00:56:19.550Z,21.77
2019-02-28T00:58:47.603Z,21.40
2019-02-28T01:01:15.736Z,21.70
2019-02-28T01:03:43.878Z,21.60
2019-02-28T01:06:12.058Z,22.62
2019-02-28T01:08:40.303Z,22.63
2019-02-28T01:11:10.432Z,21.15
2019-02-28T01:13:38.081Z,22.20
2019-02-28T01:16:06.370Z,22.52
2019-02-28T01:18:35.370Z,23.60
2019-02-28T01:21:04.137Z,22.90
2019-02-28T01:23:32.285Z,22.93
2019-02-28T01:26:00.886Z,21.37
2019-02-28T01:28:29.168Z,20.68
2019-02-28T01:30:57.821Z,24.00
2019-02-28T01:33:29.337Z,23.15
2019-02-28T01:35:57.888Z,25.50
2019-02-28T01:38:26.314Z,25.17
2019-02-28T01:40:55.047Z,28.05
2019-02-28T01:43:28.371Z,24.77
2019-02-28T01:45:54.306Z,26.13
2019-02-28T01:48:23.670Z,24.50
2019-02-28T01:50:55.673Z,27.73
2019-02-28T01:53:23.976Z,26.10
2019-02-28T01:55:52.337Z,26.67
2019-02-28T01:58:20.627Z,31.17
2019-02-28T02:00:48.912Z,27.83
2019-02-28T02:03:17.357Z,27.80
2019-02-28T02:05:48.281Z,27.93
2019-02-28T02:08:15.903Z,28.73
2019-02-28T02:10:44.497Z,28.77
2019-02-28T02:13:12.657Z,29.13
2019-02-28T02:15:40.843Z,28.97
2019-02-28T02:18:10.017Z,27.57
2019-02-28T02:20:38.818Z,28.10
2019-02-28T02:23:07.001Z,28.50
2019-02-28T02:25:37.483Z,28.47
2019-02-28T02:28:05.874Z,25.57
2019-02-28T02:30:34.247Z,28.47
2019-02-28T02:33:02.313Z,29.10
2019-02-28T02:35:30.425Z,27.00
2019-02-28T02:38:03.408Z,26.60
2019-02-28T02:40:28.339Z,28.00
2019-02-28T02:42:58.339Z,27.40
2019-02-28T02:45:26.303Z,27.00
2019-02-28T02:47:54.450Z,26.33
2019-02-28T02:50:23.721Z,28.67
2019-02-28T02:52:52.421Z,28.33
2019-02-28T02:55:20.342Z,29.67
2019-02-28T02:57:51.694Z,28.80
2019-02-28T03:00:19.361Z,29.00
2019-02-28T03:02:47.875Z,27.10
2019-02-28T03:05:15.895Z,30.40
2019-02-28T03:07:44.061Z,29.70
2019-02-28T03:10:17.578Z,30.27
2019-02-28T03:12:43.391Z,33.60
2019-02-28T03:15:12.845Z,31.90
2019-02-28T03:17:46.530Z,31.20
2019-02-28T03:20:11.050Z,30.07
2019-02-28T03:22:39.446Z,29.87
2019-02-28T03:25:08.379Z,31.33
2019-02-28T03:27:36.386Z,32.20
2019-02-28T03:30:05.407Z,31.90
2019-02-28T03:32:40.555Z,28.70
2019-02-28T03:35:04.323Z,29.77
2019-02-28T03:37:34.398Z,28.80
2019-02-28T03:40:05.149Z,28.83
2019-02-28T03:42:33.714Z,30.70
2019-02-28T03:45:02.180Z,29.43
2019-02-28T03:47:30.871Z,29.13
2019-02-28T03:49:59.445Z,30.67
2019-02-28T03:52:27.377Z,30.50
2019-02-28T03:54:55.659Z,30.37
2019-02-28T03:57:27.982Z,31.87
2019-02-28T03:59:56.750Z,30.57
2019-02-28T04:02:24.521Z,32.40
2019-02-28T04:04:52.738Z,29.90
2019-02-28T04:07:20.869Z,30.90
2019-02-28T04:09:48.792Z,30.57
2019-02-28T04:12:16.931Z,30.63
2019-02-28T04:14:45.007Z,29.40
2019-02-28T04:17:13.050Z,31.40
2019-02-28T04:19:41.064Z,30.03
2019-02-28T04:22:09.718Z,32.10
2019-02-28T04:24:38.421Z,30.40
2019-02-28T04:27:07.755Z,31.80
2019-02-28T04:29:36.516Z,33.97
2019-02-28T04:32:04.778Z,30.53
2019-02-28T04:34:33.234Z,30.60
2019-02-28T04:37:01.645Z,33.07
2019-02-28T04:39:29.825Z,30.50
2019-02-28T04:41:57.997Z,32.67
2019-02-28T04:44:26.699Z,31.93
2019-02-28T04:46:55.112Z,34.10
2019-02-28T04:49:23.291Z,30.97
2019-02-28T04:51:51.430Z,31.17
2019-02-28T04:54:19.365Z,32.27
2019-02-28T04:56:47.398Z,32.47
2019-02-28T04:59:15.589Z,31.87
2019-02-28T05:01:45.297Z,34.80
2019-02-28T05:04:13.689Z,34.30
2019-02-28T05:06:41.761Z,35.90
2019-02-28T05:09:10.667Z,34.90
2019-02-28T05:11:39.716Z,36.47
2019-02-28T05:14:07.745Z,36.10
2019-02-28T05:16:35.817Z,35.00
2019-02-28T05:19:03.847Z,36.90
2019-02-28T05:21:31.780Z,36.97
2019-02-28T05:23:59.837Z,35.75
2019-02-28T05:26:27.992Z,37.83
2019-02-28T05:28:55.950Z,35.90
2019-02-28T05:31:24.213Z,37.03
2019-02-28T05:33:54.098Z,39.40
2019-02-28T05:36:22.138Z,40.77
2019-02-28T05:38:50.205Z,39.23
2019-02-28T05:41:18.396Z,40.30
2019-02-28T05:43:46.647Z,39.75
2019-02-28T05:46:15.727Z,37.80
2019-02-28T05:48:43.786Z,40.33
2019-02-28T05:51:12.033Z,40.28
2019-02-28T05:53:41.373Z,39.73
2019-02-28T05:56:10.267Z,41.30
2019-02-28T05:58:38.330Z,39.33
2019-02-28T06:01:08.756Z,42.00
2019-02-28T06:03:36.311Z,42.45
2019-02-28T06:06:08.062Z,42.20
2019-02-28T06:08:39.143Z,44.65
2019-02-28T06:11:06.253Z,44.50
2019-02-28T06:13:34.194Z,45.47
2019-02-28T06:16:02.802Z,48.40
2019-02-28T06:18:33.367Z,43.35
2019-02-28T06:21:01.335Z,46.33
2019-02-28T06:23:29.569Z,44.58
2019-02-28T06:25:59.254Z,46.95
2019-02-28T06:28:30.946Z,49.18
2019-02-28T06:30:57.742Z,47.13
2019-02-28T06:33:25.753Z,49.80
2019-02-28T06:35:54.554Z,48.13
2019-02-28T06:38:22.705Z,51.27
2019-02-28T06:40:53.564Z,48.67
2019-02-28T06:43:25.255Z,50.47
2019-02-28T06:45:52.561Z,51.75
2019-02-28T06:48:25.794Z,48.60
2019-02-28T06:50:50.533Z,51.00
2019-02-28T06:53:19.060Z,51.40
2019-02-28T06:55:47.632Z,51.03
2019-02-28T06:58:16.906Z,49.73
2019-02-28T07:00:47.331Z,48.80
2019-02-28T07:03:15.307Z,50.70
2019-02-28T07:05:43.705Z,53.10
2019-02-28T07:08:12.011Z,50.83
2019-02-28T07:10:41.551Z,50.90
2019-02-28T07:13:11.838Z,50.97
2019-02-28T07:15:39.969Z,49.23
2019-02-28T07:18:08.516Z,49.33
2019-02-28T07:20:37.078Z,50.77
2019-02-28T07:23:05.049Z,48.83
2019-02-28T07:25:33.686Z,46.90
2019-02-28T07:28:02.545Z,48.57
2019-02-28T07:30:30.726Z,50.13
2019-02-28T07:32:59.163Z,46.83
2019-02-28T07:35:32.842Z,50.80
2019-02-28T07:37:59.189Z,48.43
2019-02-28T07:40:27.554Z,46.67
2019-02-28T07:42:55.746Z,46.73
2019-02-28T07:45:24.241Z,47.80
2019-02-28T07:47:52.979Z,46.33
2019-02-28T07:50:21.344Z,47.63
2019-02-28T07:52:49.429Z,47.17
2019-02-28T07:55:17.925Z,45.20
2019-02-28T07:57:50.992Z,44.80
2019-02-28T08:00:18.495Z,47.03
2019-02-28T08:02:49.036Z,47.63
2019-02-28T08:05:17.180Z,46.00
2019-02-28T08:07:50.517Z,44.40
2019-02-28T08:10:17.630Z,46.33
2019-02-28T08:12:46.011Z,46.20
2019-02-28T08:15:20.949Z,44.67
2019-02-28T08:17:47.193Z,45.10
2019-02-28T08:20:18.437Z,43.20
2019-02-28T08:22:46.763Z,44.07
2019-02-28T08:25:15.358Z,43.63
2019-02-28T08:27:44.129Z,42.23
2019-02-28T08:30:16.306Z,42.73
2019-02-28T08:32:47.098Z,42.87
2019-02-28T08:35:15.948Z,41.27
2019-02-28T08:37:47.482Z,42.93
2019-02-28T08:40:16.393Z,43.83
2019-02-28T08:42:49.990Z,44.30
2019-02-28T08:45:21.059Z,44.73
2019-02-28T08:47:48.435Z,41.50
2019-02-28T08:50:20.551Z,42.37
2019-02-28T08:52:53.702Z,44.10
2019-02-28T08:55:28.154Z,46.70
2019-02-28T08:57:55.024Z,41.27
2019-02-28T09:00:21.895Z,41.77
2019-02-28T09:02:54.400Z,43.00
2019-02-28T09:05:26.093Z,39.80
2019-02-28T09:07:52.546Z,43.67
2019-02-28T09:10:20.926Z,41.83
2019-02-28T09:12:49.045Z,42.77
2019-02-28T09:15:19.645Z,39.73
2019-02-28T09:17:47.784Z,40.70
2019-02-28T09:20:16.046Z,41.70
2019-02-28T09:22:44.165Z,40.27
2019-02-28T09:25:13.465Z,42.30
2019-02-28T09:27:47.467Z,40.20
2019-02-28T09:30:26.529Z,41.07
2019-02-28T09:32:55.539Z,39.53
2019-02-28T09:35:26.942Z,39.17
2019-02-28T09:37:55.046Z,38.70
2019-02-28T09:40:25.788Z,38.90
2019-02-28T09:42:53.522Z,40.77
2019-02-28T09:45:23.375Z,41.97
2019-02-28T09:47:51.604Z,41.77
2019-02-28T09:50:22.566Z,39.07
2019-02-28T09:52:49.781Z,41.27
2019-02-28T09:55:18.033Z,39.00
2019-02-28T09:57:46.151Z,41.97
2019-02-28T10:00:17.267Z,40.50
2019-02-28T10:02:45.421Z,42.70
2019-02-28T10:05:13.899Z,40.30
2019-02-28T10:07:42.038Z,40.77
2019-02-28T10:10:13.823Z,41.80
2019-02-28T10:12:43.727Z,42.10
2019-02-28T10:15:14.025Z,39.60
2019-02-28T10:17:42.331Z,40.27
2019-02-28T10:20:16.440Z,38.07
2019-02-28T10:22:48.111Z,37.80
2019-02-28T10:25:16.377Z,35.50
2019-02-28T10:27:44.769Z,36.20
2019-02-28T10:30:15.920Z,31.47
2019-02-28T10:32:49.013Z,29.10
2019-02-28T10:35:18.540Z,29.30
2019-02-28T10:37:47.291Z,30.13
2019-02-28T10:40:18.636Z,29.50
2019-02-28T10:42:50.478Z,29.27
2019-02-28T10:45:19.616Z,29.73
2019-02-28T10:47:47.801Z,30.30
2019-02-28T10:50:18.059Z,26.40
2019-02-28T10:52:46.585Z,29.70
2019-02-28T10:55:19.417Z,29.03
2019-02-28T10:57:47.221Z,28.57
2019-02-28T11:00:20.114Z,28.67
2019-02-28T11:02:50.467Z,28.47
2019-02-28T11:05:23.898Z,27.50
2019-02-28T11:07:52.593Z,28.50
2019-02-28T11:10:21.097Z,29.23
2019-02-28T11:12:50.040Z,26.20
2019-02-28T11:15:23.725Z,27.07
2019-02-28T11:17:52.721Z,26.70
2019-02-28T11:20:22.554Z,29.47
2019-02-28T11:22:51.229Z,26.43
2019-02-28T11:25:25.234Z,27.53
2019-02-28T11:27:54.787Z,28.00
2019-02-28T11:30:23.550Z,26.07
2019-02-28T11:32:52.809Z,27.67
2019-02-28T11:35:23.163Z,27.03
2019-02-28T11:37:56.418Z,27.53
2019-02-28T11:40:26.125Z,27.60
2019-02-28T11:42:54.648Z,27.23
2019-02-28T11:45:25.577Z,27.23
2019-02-28T11:47:58.921Z,28.00
2019-02-28T11:50:28.597Z,27.50
2019-02-28T11:53:03.236Z,28.40
2019-02-28T11:55:27.906Z,28.37
2019-02-28T11:57:56.670Z,28.50
2019-02-28T12:00:29.349Z,26.83
2019-02-28T12:03:00.811Z,29.00
2019-02-28T12:05:27.877Z,28.83
2019-02-28T12:07:56.198Z,28.70
2019-02-28T12:10:26.992Z,27.50
2019-02-28T12:12:56.466Z,28.30
2019-02-28T12:15:25.953Z,28.10
2019-02-28T12:17:54.336Z,27.30
2019-02-28T12:20:26.551Z,28.30
2019-02-28T12:22:55.342Z,28.20
2019-02-28T12:25:24.233Z,27.80
2019-02-28T12:27:52.507Z,29.50
2019-02-28T12:30:25.160Z,28.13
2019-02-28T12:32:56.685Z,26.67
2019-02-28T12:35:25.333Z,29.63
2019-02-28T12:37:54.929Z,28.20
2019-02-28T12:40:25.126Z,28.00
2019-02-28T12:42:53.581Z,28.80
2019-02-28T12:45:25.425Z,31.70
2019-02-28T12:47:53.717Z,28.40
2019-02-28T12:50:22.305Z,28.27
2019-02-28T12:52:50.403Z,29.10
2019-02-28T12:55:18.866Z,28.80
2019-02-28T12:57:48.559Z,29.03
2019-02-28T13:00:19.926Z,30.33
2019-02-28T13:02:49.886Z,29.63
2019-02-28T13:05:18.043Z,32.30
2019-02-28T13:07:50.320Z,31.33
2019-02-28T13:10:18.830Z,32.73
2019-02-28T13:12:48.810Z,35.17
2019-02-28T13:15:17.103Z,33.33
2019-02-28T13:17:45.491Z,31.60
2019-02-28T13:20:16.620Z,32.93
2019-02-28T13:22:45.036Z,34.90
2019-02-28T13:25:13.455Z,36.77
2019-02-28T13:27:45.196Z,37.67
2019-02-28T13:30:20.123Z,38.50
2019-02-28T13:32:48.581Z,40.83
2019-02-28T13:35:18.945Z,41.67
2019-02-28T13:37:47.154Z,40.30
2019-02-28T13:40:15.336Z,42.17
2019-02-28T13:42:46.974Z,42.70
2019-02-28T13:45:22.236Z,41.50
2019-02-28T13:47:47.618Z,46.77
2019-02-28T13:50:18.063Z,46.87
2019-02-28T13:52:52.301Z,48.17
2019-02-28T13:55:20.245Z,48.37
2019-02-28T13:57:48.706Z,47.77
2019-02-28T14:00:22.014Z,48.23
2019-02-28T14:02:57.277Z,43.70
2019-02-28T14:05:25.837Z,47.20
2019-02-28T14:07:54.473Z,45.30
2019-02-28T14:10:22.910Z,46.60
2019-02-28T14:12:56.873Z,41.50
2019-02-28T14:15:25.828Z,40.37
2019-02-28T14:17:53.986Z,40.60
2019-02-28T14:20:24.370Z,37.53
2019-02-28T14:22:52.326Z,39.83
2019-02-28T14:25:22.127Z,35.47
2019-02-28T14:27:50.306Z,34.40
2019-02-28T14:30:22.835Z,35.53
2019-02-28T14:32:50.392Z,31.47
2019-02-28T14:35:22.839Z,32.60
2019-02-28T14:37:51.824Z,34.27
2019-02-28T14:40:20.911Z,42.47
2019-02-28T14:42:49.241Z,44.87
2019-02-28T14:45:18.057Z,48.83
2019-02-28T14:47:56.839Z,48.90
2019-02-28T14:50:21.194Z,49.40
2019-02-28T14:52:50.374Z,52.60
2019-02-28T14:55:18.558Z,48.60
2019-02-28T14:57:48.858Z,50.13
2019-02-28T15:00:18.943Z,51.10
2019-02-28T15:02:47.087Z,48.70
2019-02-28T15:05:16.616Z,50.80
2019-02-28T15:07:45.643Z,50.60
2019-02-28T15:10:18.462Z,50.53
2019-02-28T15:12:46.660Z,52.97
2019-02-28T15:15:18.017Z,54.30
2019-02-28T15:17:46.218Z,50.73
2019-02-28T15:20:14.920Z,49.40
2019-02-28T15:22:43.973Z,46.40
2019-02-28T15:25:15.321Z,47.20
2019-02-28T15:27:43.418Z,44.80
2019-02-28T15:30:14.437Z,48.33
2019-02-28T15:32:45.399Z,42.60
2019-02-28T15:35:15.296Z,38.83
2019-02-28T15:37:44.461Z,50.30
2019-02-28T15:40:16.364Z,42.03
2019-02-28T15:42:47.752Z,43.70
2019-02-28T15:45:16.243Z,40.50
2019-02-28T15:47:45.137Z,41.67
2019-02-28T15:50:16.399Z,43.47
2019-02-28T15:52:45.207Z,39.60
2019-02-28T15:55:14.283Z,39.83
2019-02-28T15:57:42.680Z,36.20
2019-02-28T16:00:14.826Z,35.90
2019-02-28T16:02:43.270Z,32.40
2019-02-28T16:05:12.629Z,32.50
2019-02-28T16:07:41.057Z,33.90
2019-02-28T16:10:13.566Z,31.53
2019-02-28T16:12:42.104Z,31.37
2019-02-28T16:15:11.913Z,32.77
2019-02-28T16:17:41.259Z,32.17
2019-02-28T16:20:10.389Z,29.60
2019-02-28T16:22:38.961Z,31.00
2019-02-28T16:25:11.487Z,27.70
2019-02-28T16:27:40.258Z,29.93
2019-02-28T16:30:09.885Z,28.87
2019-02-28T16:32:38.178Z,28.03
2019-02-28T16:35:06.605Z,28.60
2019-02-28T16:37:35.843Z,27.07
2019-02-28T16:40:05.790Z,26.77
2019-02-28T16:42:34.699Z,26.30
2019-02-28T16:45:06.093Z,26.93
2019-02-28T16:47:34.863Z,26.23
2019-02-28T16:50:03.755Z,24.87
2019-02-28T16:52:32.543Z,24.50
2019-02-28T16:55:00.957Z,25.07
2019-02-28T16:57:29.364Z,23.37
2019-02-28T16:59:58.653Z,22.50
2019-02-28T17:02:29.339Z,22.77
2019-02-28T17:04:57.458Z,24.50
2019-02-28T17:07:25.759Z,22.63
2019-02-28T17:09:53.934Z,22.50
2019-02-28T17:12:48.627Z,21.07
2019-02-28T17:15:24.149Z,21.67
2019-02-28T17:17:56.318Z,21.63
2019-02-28T17:20:24.609Z,22.37
2019-02-28T17:22:52.953Z,20.47
2019-02-28T17:25:21.842Z,21.50
2019-02-28T17:27:59.007Z,19.20
2019-02-28T17:30:52.711Z,21.53
2019-02-28T17:33:20.997Z,20.50
2019-02-28T17:35:49.817Z,19.17
2019-02-28T17:38:17.849Z,19.30
2019-02-28T17:40:46.265Z,17.90
2019-02-28T17:43:14.963Z,15.90
2019-02-28T17:45:43.389Z,15.70
2019-02-28T17:48:25.341Z,14.27
2019-02-28T17:51:10.384Z,14.60
2019-02-28T17:54:04.222Z,14.50
2019-02-28T17:57:16.574Z,13.60
2019-02-28T18:00:08.629Z,14.07
2019-02-28T18:03:02.242Z,10.87
2019-02-28T18:05:55.664Z,12.07
2019-02-28T18:08:50.862Z,11.00
2019-02-28T18:11:49.241Z,10.77
2019-02-28T18:14:43.877Z,10.47
2019-02-28T18:18:05.428Z,9.60
2019-02-28T18:21:07.581Z,10.70
2019-02-28T18:24:22.270Z,11.77
2019-02-28T18:27:39.557Z,11.60
2019-02-28T18:30:47.185Z,10.30
2019-02-28T18:33:19.598Z,11.27
2019-02-28T18:35:47.433Z,11.73
2019-02-28T18:38:15.350Z,11.30
2019-02-28T18:40:43.254Z,11.50
2019-02-28T18:43:10.745Z,14.23
2019-02-28T18:45:38.138Z,13.40
2019-02-28T18:48:05.538Z,12.73
2019-02-28T18:50:32.829Z,10.77
2019-02-28T18:53:00.222Z,10.87
2019-02-28T18:55:34.663Z,9.83
2019-02-28T18:57:56.753Z,10.43
2019-02-28T19:00:24.785Z,11.90
2019-02-28T19:02:52.409Z,10.80
2019-02-28T19:05:19.698Z,10.30
2019-02-28T19:07:46.980Z,10.73
2019-02-28T19:10:15.524Z,11.20
2019-02-28T19:12:43.894Z,9.50
2019-02-28T19:15:12.505Z,10.20
2019-02-28T19:17:41.170Z,10.77
2019-02-28T19:20:10.101Z,10.93
2019-02-28T19:22:38.624Z,9.37
2019-02-28T19:25:06.986Z,8.83
2019-02-28T19:27:35.310Z,10.17
2019-02-28T19:30:08.509Z,9.40
2019-02-28T19:32:36.943Z,8.27
2019-02-28T19:35:05.418Z,8.93
2019-02-28T19:37:33.597Z,9.33
2019-02-28T19:40:01.762Z,10.10
2019-02-28T19:42:29.886Z,9.00
2019-02-28T19:44:59.330Z,10.60
2019-02-28T19:47:27.436Z,9.70
2019-02-28T19:49:55.623Z,9.83
2019-02-28T19:52:24.235Z,10.20
2019-02-28T19:54:52.180Z,9.50
2019-02-28T19:57:20.547Z,10.60
2019-02-28T19:59:48.985Z,10.43
2019-02-28T20:02:17.402Z,10.43
2019-02-28T20:04:45.351Z,8.60
2019-02-28T20:07:14.919Z,9.60
2019-02-28T20:09:43.658Z,9.00
2019-02-28T20:12:12.369Z,9.90
2019-02-28T20:14:41.736Z,10.37
2019-02-28T20:17:10.117Z,9.80
2019-02-28T20:19:38.277Z,9.80
2019-02-28T20:22:06.206Z,9.60
2019-02-28T20:24:34.393Z,10.37
2019-02-28T20:27:02.455Z,9.23
2019-02-28T20:29:30.508Z,9.40
2019-02-28T20:31:58.785Z,8.70
2019-02-28T20:34:29.101Z,8.60
2019-02-28T20:36:58.139Z,8.57
2019-02-28T20:39:26.485Z,10.30
2019-02-28T20:41:56.010Z,8.83
2019-02-28T20:44:24.225Z,10.40
2019-02-28T20:46:53.425Z,11.03
2019-02-28T20:49:21.710Z,11.50
2019-02-28T20:51:55.206Z,9.70
2019-02-28T20:54:20.126Z,12.27
2019-02-28T20:56:48.103Z,11.07
2019-02-28T20:59:16.074Z,11.40
2019-02-28T21:01:44.110Z,12.40
2019-02-28T21:04:12.303Z,10.70
2019-02-28T21:06:41.249Z,10.77
2019-02-28T21:09:11.893Z,11.30
2019-02-28T21:11:39.017Z,11.40
2019-02-28T21:14:06.951Z,12.73
2019-02-28T21:16:35.363Z,12.97
2019-02-28T21:19:03.612Z,12.03
2019-02-28T21:21:31.866Z,11.50
2019-02-28T21:23:59.789Z,13.07
2019-02-28T21:26:27.829Z,13.97
2019-02-28T21:28:55.812Z,13.67
2019-02-28T21:31:23.997Z,14.43
2019-02-28T21:33:51.933Z,13.50
2019-02-28T21:36:20.118Z,12.90
2019-02-28T21:38:48.386Z,12.60
2019-02-28T21:41:17.097Z,13.67
2019-02-28T21:43:45.589Z,12.00
2019-02-28T21:46:13.749Z,12.03
2019-02-28T21:48:42.277Z,10.77
2019-02-28T21:51:10.564Z,11.77
2019-02-28T21:53:39.001Z,11.10
2019-02-28T21:56:07.400Z,9.57
2019-02-28T21:58:36.165Z,11.33
2019-02-28T22:01:04.299Z,10.60
2019-02-28T22:03:32.771Z,10.40
2019-02-28T22:06:01.196Z,10.47
2019-02-28T22:08:29.510Z,9.10
2019-02-28T22:10:58.009Z,9.97
2019-02-28T22:13:26.629Z,8.63
2019-02-28T22:15:54.671Z,9.43
2019-02-28T22:18:23.069Z,9.53
2019-02-28T22:20:51.435Z,10.53
2019-02-28T22:23:19.974Z,9.90
2019-02-28T22:25:48.019Z,9.97
2019-02-28T22:28:16.154Z,11.93
2019-02-28T22:31:03.941Z,12.43
2019-02-28T22:33:42.659Z,12.43
2019-02-28T22:36:13.368Z,13.20
2019-02-28T22:38:41.505Z,12.80
2019-02-28T22:41:09.825Z,12.93
2019-02-28T22:43:38.115Z,12.83
2019-02-28T22:46:06.251Z,14.17
2019-02-28T22:48:34.381Z,14.20
2019-02-28T22:51:02.543Z,14.60
2019-02-28T22:53:30.573Z,14.63
2019-02-28T22:55:58.651Z,15.63
2019-02-28T22:58:27.117Z,15.80
2019-02-28T23:01:02.879Z,15.07
2019-02-28T23:03:31.702Z,16.70
2019-02-28T23:05:59.869Z,16.50
2019-02-28T23:08:28.254Z,15.83
2019-02-28T23:10:56.666Z,18.37
2019-02-28T23:13:24.802Z,18.33
2019-02-28T23:15:53.056Z,18.47
2019-02-28T23:18:21.202Z,17.83
2019-02-28T23:20:49.385Z,18.17
2019-02-28T23:23:17.522Z,17.93
2019-02-28T23:25:45.670Z,20.40
2019-02-28T23:28:21.969Z,18.40
2019-02-28T23:31:20.382Z,19.13
2019-02-28T23:33:48.073Z,18.27
2019-02-28T23:36:15.446Z,19.73
2019-02-28T23:38:42.626Z,18.07
2019-02-28T23:41:09.881Z,18.10
2019-02-28T23:43:37.029Z,18.47
2019-02-28T23:46:05.173Z,18.97
2019-02-28T23:48:33.122Z,17.80
2019-02-28T23:51:01.083Z,18.10
2019-02-28T23:53:29.049Z,18.90
2019-02-28T23:55:57.339Z,18.20
2019-02-28T23:58:25.433Z,19.23
